Terminal Aerodrome Forecast
Issued by NWS

Home | Current Version | Previous Version | Text Only | Print | Product List | Glossary On
Versions: 1 2 3 4 5 6 7 8 9 10
865
FTUS46 KMTR 232338
TAFSTS
TAF
KSTS 232338Z 2400/2424 25014G20KT P6SM FEW060 SCT250
     FM240400 VRB05KT P6SM FEW060 BKN100
     FM241000 VRB03KT P6SM BKN060 OVC100
     FM241600 24011KT P6SM -RA OVC060
     FM241900 24012KT P6SM -RA BKN030 OVC050=

USA.gov is the U.S. government's official web portal to all federal, state and local government web resources and services.